Time;durP1;ratioP1;P1;durP2;ratioP2;P2;SDS_P1;SDS_P2;PMS_P1;PMS_P2;Temp;Humidity;BMP_temperature;BMP_pressure;BME280_temperature;BME280_humidity;BME280_pressure;Samples;Min_cycle;Max_cycle;Signal;HPM_P1;HPM_P2
2022/02/06 00:01:43;;;;;;;14.02;5.88;;;8.10;89.10;;;;;;5079564;28;20107;-78
2022/02/06 00:04:08;;;;;;;7.90;3.97;;;8.10;89.10;;;;;;5071560;28;20439;-78
2022/02/06 00:06:35;;;;;;;11.60;6.38;;;8.10;89.20;;;;;;5071553;28;20439;-77
2022/02/06 00:09:01;;;;;;;8.38;4.68;;;8.10;89.20;;;;;;5061624;28;20057;-78
2022/02/06 00:11:26;;;;;;;12.18;4.65;;;8.10;89.30;;;;;;5068266;28;20053;-78
2022/02/06 00:13:52;;;;;;;19.83;9.50;;;8.10;89.30;;;;;;5072014;28;20023;-78
2022/02/06 00:16:18;;;;;;;11.02;5.70;;;8.20;89.30;;;;;;5071483;28;20024;-77
2022/02/06 00:18:46;;;;;;;10.20;5.07;;;8.20;89.20;;;;;;5071672;28;20059;-77
2022/02/06 00:21:14;;;;;;;11.35;6.10;;;8.20;89.20;;;;;;5071553;28;20020;-77
2022/02/06 00:23:41;;;;;;;11.77;4.75;;;8.20;89.20;;;;;;5071683;28;20127;-79
2022/02/06 00:26:20;;;;;;;12.13;5.80;;;8.20;89.30;;;;;;5061819;28;20017;-79
2022/02/06 00:28:58;;;;;;;16.25;5.80;;;8.20;89.40;;;;;;5069269;28;20360;-77
2022/02/06 00:31:35;;;;;;;12.45;5.68;;;8.20;89.40;;;;;;5064494;28;20116;-78
2022/02/06 00:39:10;;;;;;;13.88;7.40;;;8.30;89.50;;;;;;5067806;28;20062;-78
2022/02/06 00:41:37;;;;;;;14.90;5.97;;;8.30;89.50;;;;;;5069858;28;20032;-78
2022/02/06 00:44:04;;;;;;;15.77;8.38;;;8.30;89.60;;;;;;5059002;28;20021;-77
2022/02/06 00:46:36;;;;;;;7.10;4.93;;;8.30;89.60;;;;;;5069624;28;20395;-78
2022/02/06 00:49:13;;;;;;;11.90;6.32;;;8.20;89.60;;;;;;5067602;28;20461;-78
2022/02/06 00:51:49;;;;;;;9.77;5.03;;;8.30;89.70;;;;;;5069011;28;20500;-77
2022/02/06 00:54:15;;;;;;;10.27;5.22;;;8.30;89.70;;;;;;5063070;28;20103;-78
2022/02/06 00:56:41;;;;;;;10.07;4.30;;;8.30;89.60;;;;;;5068433;28;20119;-77
2022/02/06 00:59:07;;;;;;;8.15;4.35;;;8.30;89.50;;;;;;5053139;28;20045;-78
2022/02/06 01:01:33;;;;;;;10.45;4.40;;;8.30;89.70;;;;;;5063036;28;20040;-77
2022/02/06 01:03:58;;;;;;;12.50;5.35;;;8.30;89.70;;;;;;5064467;28;20052;-77
2022/02/06 01:06:24;;;;;;;11.52;5.05;;;8.30;89.70;;;;;;5069474;28;20474;-77
2022/02/06 01:08:49;;;;;;;7.30;3.67;;;8.30;89.70;;;;;;5057810;28;20068;-77
2022/02/06 01:11:16;;;;;;;8.82;4.47;;;8.30;89.70;;;;;;5064527;28;20021;-77
2022/02/06 01:16:36;;;;;;;11.05;4.53;;;8.30;89.70;;;;;;5070755;28;20021;-78
2022/02/06 01:19:17;;;;;;;9.75;4.45;;;8.30;89.80;;;;;;5066788;28;20026;-78
2022/02/06 01:24:56;;;;;;;10.27;4.72;;;8.20;89.90;;;;;;5060159;28;20067;-78
2022/02/06 01:27:32;;;;;;;10.80;4.20;;;8.20;89.90;;;;;;5058762;28;20029;-79
2022/02/06 01:29:59;;;;;;;9.63;4.10;;;8.20;89.90;;;;;;5065983;28;20474;-77
2022/02/06 01:32:34;;;;;;;8.63;4.10;;;8.20;90.00;;;;;;5061982;28;20097;-78
2022/02/06 01:35:09;;;;;;;11.60;4.80;;;8.20;90.00;;;;;;5067292;28;20070;-78
2022/02/06 01:37:42;;;;;;;8.50;3.85;;;8.20;90.00;;;;;;5069106;28;20035;-78
2022/02/06 01:40:15;;;;;;;7.63;3.78;;;8.20;90.00;;;;;;5062202;28;20032;-77
2022/02/06 01:42:52;;;;;;;9.88;4.20;;;8.20;90.30;;;;;;5068560;28;20021;-78
2022/02/06 02:04:20;;;;;;;7.50;3.97;;;8.20;90.10;;;;;;5068164;28;20032;-79
2022/02/06 02:09:39;;;;;;;7.68;3.28;;;8.20;90.20;;;;;;5063713;28;20035;-78
2022/02/06 02:15:13;;;;;;;7.97;3.50;;;8.20;90.20;;;;;;5061331;28;20031;-78
2022/02/06 02:18:02;;;;;;;8.88;3.97;;;8.30;90.30;;;;;;5059065;28;20035;-77
2022/02/06 02:28:50;;;;;;;5.55;3.10;;;8.40;90.20;;;;;;5061760;28;20096;-78
2022/02/06 02:47:13;;;;;;;8.25;3.67;;;8.40;90.30;;;;;;5064981;28;20056;-78
2022/02/06 02:49:43;;;;;;;8.27;3.45;;;8.40;90.30;;;;;;5067114;28;20021;-78
2022/02/06 02:52:17;;;;;;;7.90;3.10;;;8.40;90.30;;;;;;5068994;28;20037;-79
2022/02/06 02:54:47;;;;;;;7.53;3.05;;;8.40;90.30;;;;;;5062590;28;20108;-79
2022/02/06 02:57:29;;;;;;;7.03;3.47;;;8.40;90.30;;;;;;5067551;28;20031;-78
2022/02/06 03:00:07;;;;;;;6.03;3.60;;;8.40;90.30;;;;;;5068478;28;20103;-78
2022/02/06 03:02:33;;;;;;;8.20;4.00;;;8.40;90.30;;;;;;5059976;28;20028;-78
2022/02/06 03:05:00;;;;;;;6.75;3.53;;;8.40;90.30;;;;;;5068728;28;20017;-77
2022/02/06 03:07:26;;;;;;;5.50;3.42;;;8.40;90.40;;;;;;5063286;28;20079;-77
2022/02/06 03:09:51;;;;;;;5.88;3.00;;;8.40;90.30;;;;;;5060431;28;20552;-76
2022/02/06 03:12:23;;;;;;;7.15;3.28;;;8.40;90.30;;;;;;5071488;28;20483;-79
2022/02/06 03:14:56;;;;;;;9.95;4.20;;;8.40;90.60;;;;;;5065051;28;20103;-78
2022/02/06 03:17:34;;;;;;;8.18;3.88;;;8.40;90.40;;;;;;5060955;28;20040;-79
2022/02/06 03:20:07;;;;;;;6.60;3.72;;;8.40;90.40;;;;;;5071604;28;20050;-78
2022/02/06 03:22:49;;;;;;;5.72;3.30;;;8.40;90.40;;;;;;5067387;28;20527;-78
2022/02/06 03:25:20;;;;;;;7.15;3.15;;;8.40;90.40;;;;;;5058162;28;20162;-79
2022/02/06 03:27:47;;;;;;;6.68;3.10;;;8.40;90.40;;;;;;5071378;28;20542;-78
2022/02/06 03:30:13;;;;;;;6.60;3.30;;;8.30;90.40;;;;;;5065123;28;20391;-79
2022/02/06 03:32:39;;;;;;;6.72;3.80;;;8.30;90.40;;;;;;5071867;28;20040;-78
2022/02/06 03:35:05;;;;;;;8.35;3.97;;;8.40;90.50;;;;;;5063933;28;20013;-80
2022/02/06 03:37:30;;;;;;;5.85;3.33;;;8.40;90.50;;;;;;5068563;28;20025;-80
2022/02/06 03:39:59;;;;;;;5.32;2.97;;;8.30;90.50;;;;;;5066470;28;20023;-79
2022/02/06 03:42:31;;;;;;;5.78;3.45;;;8.30;90.80;;;;;;5072732;28;20082;-78
2022/02/06 03:45:03;;;;;;;;;;;8.30;90.50;;;;;;5065988;28;20430;-78
2022/02/06 03:47:44;;;;;;;4.25;3.03;;;8.30;90.40;;;;;;5068987;28;20532;-82
2022/02/06 03:50:12;;;;;;;6.38;3.30;;;8.20;90.50;;;;;;5066173;28;20021;-77
2022/02/06 03:52:45;;;;;;;6.13;3.42;;;8.30;90.60;;;;;;5062948;28;20044;-78
2022/02/06 03:55:18;;;;;;;6.90;3.20;;;8.20;90.60;;;;;;5067932;28;20016;-78
2022/02/06 03:57:45;;;;;;;10.20;3.78;;;8.30;90.60;;;;;;5078034;28;20029;-77
2022/02/06 04:00:11;;;;;;;5.40;2.83;;;8.30;90.60;;;;;;5063830;28;20016;-78
2022/02/06 04:02:36;;;;;;;5.65;3.35;;;8.30;90.60;;;;;;5071362;28;20050;-79
2022/02/06 04:05:02;;;;;;;5.05;2.50;;;8.20;90.60;;;;;;5069117;28;20021;-79
2022/02/06 04:07:27;;;;;;;4.72;2.60;;;8.30;90.60;;;;;;5064074;28;20496;-78
2022/02/06 04:09:55;;;;;;;5.72;2.70;;;8.30;90.60;;;;;;5071824;28;20028;-78
2022/02/06 04:12:23;;;;;;;5.32;2.90;;;8.30;90.70;;;;;;5068651;28;20092;-79
2022/02/06 04:14:57;;;;;;;5.07;2.60;;;8.20;90.60;;;;;;5068695;28;20017;-79
2022/02/06 04:17:26;;;;;;;6.78;2.70;;;8.30;90.60;;;;;;5058126;28;20036;-77
2022/02/06 04:19:52;;;;;;;5.35;2.92;;;8.30;90.60;;;;;;5066550;28;20017;-77
2022/02/06 04:22:19;;;;;;;5.72;2.58;;;8.30;90.70;;;;;;5070323;28;20517;-77
2022/02/06 04:24:44;;;;;;;5.10;2.58;;;8.30;90.70;;;;;;5068630;28;20028;-77
2022/02/06 04:27:10;;;;;;;5.43;2.70;;;8.30;90.60;;;;;;5056984;28;20387;-77
2022/02/06 04:29:36;;;;;;;8.07;3.88;;;8.40;90.60;;;;;;5063703;28;20017;-78
2022/02/06 04:32:03;;;;;;;7.88;3.05;;;8.40;90.60;;;;;;5070176;28;20048;-78
2022/02/06 04:34:30;;;;;;;5.47;3.20;;;8.40;90.60;;;;;;5071980;28;20013;-79
2022/02/06 04:39:56;;;;;;;6.35;3.00;;;8.30;90.60;;;;;;5068455;28;20032;-78
2022/02/06 04:42:55;;;;;;;4.22;2.40;;;8.30;90.60;;;;;;5063014;28;20067;-80
2022/02/06 04:48:33;;;;;;;5.45;2.85;;;8.30;90.60;;;;;;5071115;28;20483;-78
2022/02/06 04:54:00;;;;;;;6.10;3.40;;;8.30;90.70;;;;;;5071171;28;20039;-79
2022/02/06 05:13:35;;;;;;;5.55;3.33;;;8.50;90.70;;;;;;5062343;28;20075;-76
2022/02/06 05:21:20;;;;;;;6.45;3.28;;;8.60;90.70;;;;;;5070822;28;20025;-77
2022/02/06 05:29:18;;;;;;;6.57;3.65;;;8.60;90.60;;;;;;5066566;28;20112;-79
2022/02/06 05:34:30;;;;;;;8.55;3.03;;;8.70;90.70;;;;;;5055328;28;20083;-78
2022/02/06 05:36:56;;;;;;;7.93;3.50;;;8.70;90.70;;;;;;5058355;28;20029;-78
2022/02/06 05:39:21;;;;;;;6.70;3.28;;;8.80;90.70;;;;;;5062920;28;20033;-78
2022/02/06 05:41:47;;;;;;;4.63;2.50;;;8.80;90.80;;;;;;5069245;28;20020;-78
2022/02/06 05:44:13;;;;;;;6.78;2.78;;;8.80;90.70;;;;;;5070275;28;20020;-79
2022/02/06 05:46:38;;;;;;;6.30;3.13;;;8.90;90.90;;;;;;5064116;28;20048;-79
2022/02/06 05:49:10;;;;;;;7.90;3.25;;;8.90;90.70;;;;;;5060493;28;20085;-79
2022/02/06 05:51:35;;;;;;;10.65;3.22;;;8.90;90.70;;;;;;5057493;28;20040;-79
2022/02/06 05:54:01;;;;;;;9.00;2.83;;;9.00;90.70;;;;;;5068952;28;20356;-79
2022/02/06 05:56:26;;;;;;;6.45;2.30;;;9.00;90.60;;;;;;5060922;28;20392;-78
2022/02/06 05:58:52;;;;;;;5.75;2.47;;;9.10;90.60;;;;;;5065267;28;20021;-79
2022/02/06 06:01:17;;;;;;;10.85;3.40;;;9.10;90.50;;;;;;5059992;28;20116;-79
2022/02/06 06:03:43;;;;;;;7.53;3.28;;;9.10;90.50;;;;;;5069639;28;20505;-79
2022/02/06 06:06:08;;;;;;;8.00;3.35;;;9.10;90.40;;;;;;5061680;28;20008;-79
2022/02/06 06:08:34;;;;;;;8.48;4.00;;;9.10;90.40;;;;;;5069852;28;20031;-79
2022/02/06 06:10:59;;;;;;;6.63;3.08;;;9.10;90.70;;;;;;5067683;28;20016;-79
2022/02/06 06:13:25;;;;;;;10.15;3.90;;;9.10;90.40;;;;;;5059326;28;20036;-77
2022/02/06 06:15:52;;;;;;;9.80;3.45;;;9.10;90.40;;;;;;5060508;28;20044;-78
2022/02/06 06:18:18;;;;;;;7.43;3.40;;;9.10;90.40;;;;;;5069985;28;20475;-79
2022/02/06 06:20:45;;;;;;;10.90;4.18;;;9.10;90.40;;;;;;5069334;28;20066;-78
2022/02/06 06:23:11;;;;;;;10.07;4.30;;;9.10;90.40;;;;;;5062822;28;20021;-78
2022/02/06 06:25:39;;;;;;;12.30;3.90;;;9.10;90.40;;;;;;5065695;28;20470;-78
2022/02/06 06:28:06;;;;;;;6.32;3.33;;;9.10;90.40;;;;;;5059162;28;20099;-76
2022/02/06 06:30:35;;;;;;;6.97;3.30;;;9.10;90.40;;;;;;5069570;28;20032;-78
2022/02/06 06:33:04;;;;;;;7.03;3.60;;;9.10;90.50;;;;;;5067753;28;20119;-77
2022/02/06 06:35:30;;;;;;;10.55;4.03;;;9.10;90.40;;;;;;5061051;28;20021;-77
2022/02/06 06:37:58;;;;;;;6.50;3.92;;;9.10;90.50;;;;;;5069705;28;20023;-77
2022/02/06 06:40:24;;;;;;;8.15;4.60;;;9.10;90.50;;;;;;5060847;28;20028;-77
2022/02/06 06:42:50;;;;;;;7.68;4.50;;;9.10;90.50;;;;;;5064479;28;20029;-78
2022/02/06 06:45:15;;;;;;;7.78;3.60;;;9.10;90.50;;;;;;5060951;28;20074;-78
2022/02/06 06:47:42;;;;;;;7.07;3.85;;;9.00;90.50;;;;;;5067152;28;20025;-78
2022/02/06 06:50:07;;;;;;;8.50;4.20;;;9.10;90.50;;;;;;5060566;28;20040;-78
2022/02/06 06:52:33;;;;;;;9.40;4.30;;;9.10;90.50;;;;;;5068585;28;20032;-79
2022/02/06 06:55:04;;;;;;;11.43;4.72;;;9.00;90.50;;;;;;5052121;28;20086;-80
2022/02/06 06:57:33;;;;;;;6.30;4.43;;;9.00;90.60;;;;;;5065096;28;20036;-80
2022/02/06 07:02:53;;;;;;;7.72;4.50;;;9.00;90.60;;;;;;5059159;28;20038;-78
2022/02/06 07:05:19;;;;;;;6.60;4.50;;;9.00;90.60;;;;;;5064195;28;20598;-77
2022/02/06 07:07:45;;;;;;;8.45;5.32;;;9.00;90.60;;;;;;5067269;28;20029;-78
2022/02/06 07:10:10;;;;;;;10.98;6.25;;;9.00;90.70;;;;;;5067060;28;20012;-77
2022/02/06 07:12:36;;;;;;;7.90;4.50;;;9.00;90.70;;;;;;5063781;28;20551;-78
2022/02/06 07:15:02;;;;;;;5.80;4.25;;;9.00;90.70;;;;;;5063725;28;20020;-77
2022/02/06 07:17:27;;;;;;;7.13;4.18;;;9.00;90.70;;;;;;5063642;28;20502;-78
2022/02/06 07:19:53;;;;;;;7.43;4.63;;;9.00;90.70;;;;;;5065563;28;20423;-78
2022/02/06 07:22:20;;;;;;;7.20;4.90;;;9.00;90.70;;;;;;5067586;28;20032;-76
2022/02/06 07:24:47;;;;;;;6.55;4.78;;;9.00;90.70;;;;;;5059552;28;20021;-78
2022/02/06 07:27:29;;;;;;;7.68;4.75;;;9.00;90.70;;;;;;5062719;28;20025;-78
2022/02/06 07:29:58;;;;;;;4.38;3.53;;;9.00;90.70;;;;;;5061218;28;20417;-77
2022/02/06 07:32:24;;;;;;;5.70;3.80;;;9.00;90.70;;;;;;5058555;28;20029;-78
2022/02/06 07:34:50;;;;;;;7.45;3.95;;;9.00;90.70;;;;;;5055665;28;20061;-80
2022/02/06 07:37:16;;;;;;;7.78;4.38;;;9.00;90.70;;;;;;5057121;28;20037;-79
2022/02/06 07:39:42;;;;;;;6.75;4.38;;;9.00;90.70;;;;;;5058770;28;20059;-79
2022/02/06 07:42:09;;;;;;;5.03;3.72;;;9.00;90.70;;;;;;5059783;28;20043;-78
2022/02/06 07:44:36;;;;;;;5.35;4.55;;;9.00;90.80;;;;;;5056912;28;20021;-78
2022/02/06 07:47:13;;;;;;;6.05;4.10;;;9.00;90.70;;;;;;5061533;28;20021;-79
2022/02/06 07:49:39;;;;;;;7.38;4.90;;;9.00;90.70;;;;;;5076498;28;20033;-80
2022/02/06 07:52:05;;;;;;;8.30;5.20;;;9.00;90.70;;;;;;5060924;28;20029;-80
2022/02/06 07:54:30;;;;;;;6.15;4.45;;;9.00;90.80;;;;;;5063269;28;20028;-81
2022/02/06 07:56:56;;;;;;;7.45;4.45;;;9.00;90.80;;;;;;5058694;28;20033;-79
2022/02/06 07:59:21;;;;;;;6.28;4.00;;;9.00;90.80;;;;;;5067218;28;20062;-79
2022/02/06 08:01:49;;;;;;;6.30;4.25;;;9.00;90.80;;;;;;5067000;28;20103;-79
2022/02/06 08:04:14;;;;;;;7.30;4.97;;;9.00;90.80;;;;;;5069291;28;20107;-79
2022/02/06 08:06:39;;;;;;;6.22;3.75;;;9.00;90.70;;;;;;5068201;28;20210;-81
2022/02/06 08:09:05;;;;;;;8.75;5.03;;;9.00;90.80;;;;;;5065734;28;20475;-83
2022/02/06 08:11:35;;;;;;;8.45;5.10;;;9.00;90.80;;;;;;5065282;28;20028;-79
2022/02/06 08:14:01;;;;;;;8.05;4.20;;;9.00;90.80;;;;;;5064241;28;20027;-79
2022/02/06 08:16:26;;;;;;;4.88;4.07;;;9.00;90.80;;;;;;5063638;28;20037;-77
2022/02/06 08:18:52;;;;;;;8.05;4.60;;;9.10;90.80;;;;;;5067520;28;20020;-80
2022/02/06 08:21:18;;;;;;;5.30;3.25;;;9.10;90.90;;;;;;5068818;28;20036;-80
2022/02/06 08:23:44;;;;;;;7.45;4.63;;;9.10;90.90;;;;;;5064690;28;20463;-79
2022/02/06 08:26:10;;;;;;;6.32;3.88;;;9.10;90.80;;;;;;5066423;28;20024;-78
2022/02/06 08:28:37;;;;;;;6.53;4.35;;;9.10;90.90;;;;;;5058032;28;20090;-80
2022/02/06 08:31:06;;;;;;;6.00;3.38;;;9.10;90.90;;;;;;5064798;28;20104;-79
2022/02/06 08:33:31;;;;;;;5.60;3.90;;;9.20;90.90;;;;;;5062191;28;20040;-81
2022/02/06 08:35:58;;;;;;;6.63;4.70;;;9.10;90.90;;;;;;5068568;28;20016;-79
2022/02/06 08:38:23;;;;;;;6.90;4.50;;;9.10;90.90;;;;;;5066453;28;20031;-79
2022/02/06 08:40:49;;;;;;;10.73;6.38;;;9.10;90.90;;;;;;5067425;28;20028;-80
2022/02/06 08:43:15;;;;;;;6.05;4.22;;;9.10;90.90;;;;;;5065842;28;20430;-79
2022/02/06 08:45:40;;;;;;;8.30;3.90;;;9.10;90.90;;;;;;5067961;28;20456;-78
2022/02/06 08:48:06;;;;;;;7.07;5.68;;;9.10;90.90;;;;;;5061289;28;20036;-79
2022/02/06 08:50:33;;;;;;;5.20;4.35;;;9.20;90.90;;;;;;5066544;28;20028;-81
2022/02/06 08:52:59;;;;;;;4.90;3.97;;;9.10;90.90;;;;;;5064528;28;20171;-80
2022/02/06 08:55:27;;;;;;;6.15;3.80;;;9.20;91.00;;;;;;5063211;28;20052;-87
2022/02/06 08:57:52;;;;;;;6.13;4.13;;;9.20;90.90;;;;;;5064446;28;20051;-89
2022/02/06 09:00:20;;;;;;;5.53;3.90;;;9.10;90.90;;;;;;5066818;28;20056;-79
2022/02/06 09:02:46;;;;;;;5.13;4.22;;;9.10;90.90;;;;;;5063435;28;20039;-80
2022/02/06 09:05:12;;;;;;;5.30;4.00;;;9.10;90.90;;;;;;5057160;28;20025;-78
2022/02/06 09:07:43;;;;;;;3.13;2.58;;;9.10;91.00;;;;;;5067215;28;20630;-78
2022/02/06 09:10:10;;;;;;;3.70;2.95;;;9.10;91.00;;;;;;5065327;28;20025;-78
2022/02/06 09:12:40;;;;;;;4.03;2.95;;;9.10;90.90;;;;;;5064089;28;20596;-78
2022/02/06 09:15:07;;;;;;;5.70;3.30;;;9.10;91.00;;;;;;5065621;28;20538;-78
2022/02/06 09:17:32;;;;;;;5.10;3.00;;;9.10;91.00;;;;;;5068162;28;20033;-78
2022/02/06 09:19:58;;;;;;;3.30;2.80;;;9.10;91.00;;;;;;5067820;28;20410;-78
2022/02/06 09:22:23;;;;;;;4.68;2.70;;;9.10;91.00;;;;;;5065718;28;20039;-78
2022/02/06 09:24:49;;;;;;;3.35;2.25;;;9.00;91.00;;;;;;5065172;28;20086;-78
2022/02/06 09:27:14;;;;;;;2.40;2.20;;;9.00;91.10;;;;;;5064958;28;20009;-78
2022/02/06 09:29:42;;;;;;;4.82;3.67;;;9.00;91.10;;;;;;5065863;28;20039;-79
2022/02/06 09:37:09;;;;;;;4.10;2.80;;;9.10;91.10;;;;;;5067179;28;20021;-78
2022/02/06 09:39:40;;;;;;;3.60;2.40;;;9.00;91.10;;;;;;5069151;28;20029;-78
2022/02/06 09:42:07;;;;;;;3.50;2.97;;;9.00;91.10;;;;;;5064554;28;20834;-77
2022/02/06 09:44:33;;;;;;;5.25;3.55;;;9.00;91.10;;;;;;5065702;28;20415;-78
2022/02/06 09:46:59;;;;;;;4.20;2.80;;;9.10;91.10;;;;;;5065097;28;20186;-77
2022/02/06 09:49:28;;;;;;;4.25;2.90;;;9.00;91.10;;;;;;5065242;28;20054;-77
2022/02/06 09:51:54;;;;;;;2.65;2.33;;;9.00;91.10;;;;;;5067951;28;20027;-78
2022/02/06 09:54:23;;;;;;;5.88;3.35;;;9.00;91.10;;;;;;5062053;28;20029;-77
2022/02/06 09:56:55;;;;;;;3.35;2.47;;;9.10;91.10;;;;;;5063855;28;20013;-75
2022/02/06 09:59:22;;;;;;;4.78;3.10;;;9.10;91.10;;;;;;5064437;28;20031;-77
2022/02/06 10:01:58;;;;;;;4.60;3.30;;;9.10;91.10;;;;;;5064715;28;20475;-77
2022/02/06 10:04:26;;;;;;;4.18;3.00;;;9.10;91.20;;;;;;5061823;28;20028;-77
2022/02/06 10:07:03;;;;;;;3.95;2.80;;;9.10;91.20;;;;;;5064757;28;20103;-77
2022/02/06 10:09:37;;;;;;;2.83;2.40;;;9.10;91.20;;;;;;5062494;28;20661;-77
2022/02/06 10:12:04;;;;;;;4.05;2.78;;;9.10;91.20;;;;;;5062687;28;20135;-78
2022/02/06 10:14:30;;;;;;;3.40;2.53;;;9.10;91.30;;;;;;5063694;28;20020;-78
2022/02/06 10:16:55;;;;;;;4.75;2.78;;;9.10;91.30;;;;;;5064374;28;20156;-78
2022/02/06 10:19:21;;;;;;;3.30;2.30;;;9.10;91.20;;;;;;5068127;28;20021;-78
2022/02/06 10:21:47;;;;;;;7.32;3.05;;;9.10;91.30;;;;;;5064476;28;20020;-78
2022/02/06 10:24:32;;;;;;;3.22;2.20;;;9.10;91.50;;;;;;5062263;28;20103;-79
2022/02/06 10:27:12;;;;;;;3.67;2.30;;;9.10;91.30;;;;;;5060776;28;20025;-79
2022/02/06 10:29:50;;;;;;;5.28;2.60;;;9.20;91.20;;;;;;5062716;28;20378;-76
2022/02/06 10:32:17;;;;;;;2.78;2.20;;;9.20;91.20;;;;;;5064125;28;20033;-77
2022/02/06 10:34:43;;;;;;;3.33;2.00;;;9.20;91.20;;;;;;5061262;28;20387;-76
2022/02/06 10:37:14;;;;;;;2.40;1.73;;;9.20;91.30;;;;;;5057500;28;20021;-77
2022/02/06 10:40:07;;;;;;;2.83;1.83;;;9.20;91.30;;;;;;5062659;28;20017;-77
2022/02/06 10:42:37;;;;;;;;;;;9.20;91.30;;;;;;5061550;28;20544;-77
2022/02/06 10:45:12;;;;;;;2.75;2.10;;;9.20;91.20;;;;;;5061640;28;20371;-77
2022/02/06 10:47:37;;;;;;;2.17;1.70;;;9.20;91.30;;;;;;5059663;28;20028;-77
2022/02/06 10:50:38;;;;;;;2.80;1.58;;;9.20;91.30;;;;;;5059301;28;20696;-77
2022/02/06 10:53:13;;;;;;;2.72;1.90;;;9.20;91.30;;;;;;5060530;28;20470;-77
2022/02/06 10:56:00;;;;;;;3.55;2.05;;;9.20;91.30;;;;;;5066474;28;20025;-78
2022/02/06 10:58:28;;;;;;;4.28;1.90;;;9.20;91.30;;;;;;5068373;28;20059;-77
2022/02/06 11:00:53;;;;;;;2.13;1.80;;;9.20;91.30;;;;;;5060672;28;20074;-76
2022/02/06 11:03:22;;;;;;;3.03;1.80;;;9.20;91.30;;;;;;5059039;28;20032;-77
2022/02/06 11:05:53;;;;;;;3.45;1.90;;;9.20;91.30;;;;;;5058977;28;20422;-77
2022/02/06 11:08:31;;;;;;;2.63;2.15;;;9.20;91.30;;;;;;5063649;28;20036;-78
2022/02/06 11:11:03;;;;;;;4.10;2.00;;;9.20;91.30;;;;;;5058540;28;20033;-76
2022/02/06 11:13:31;;;;;;;3.75;1.80;;;9.10;91.30;;;;;;5055172;28;20123;-76
2022/02/06 11:15:59;;;;;;;1.58;1.48;;;9.20;91.40;;;;;;5061347;28;20017;-77
2022/02/06 11:18:32;;;;;;;3.42;2.10;;;9.20;91.40;;;;;;5062116;28;20016;-77
2022/02/06 11:21:04;;;;;;;2.78;1.70;;;9.20;91.30;;;;;;5060638;28;20017;-78
2022/02/06 11:23:39;;;;;;;1.98;1.65;;;9.20;91.30;;;;;;5061488;28;20078;-77
2022/02/06 11:26:09;;;;;;;1.85;1.38;;;9.20;91.30;;;;;;5062726;28;20071;-77
2022/02/06 11:28:36;;;;;;;2.53;1.60;;;9.20;91.30;;;;;;5062484;28;20040;-79
2022/02/06 11:31:01;;;;;;;2.25;1.60;;;9.20;91.30;;;;;;5065573;28;20036;-78
2022/02/06 11:33:28;;;;;;;1.92;1.65;;;9.20;91.40;;;;;;5069817;28;20037;-78
2022/02/06 11:35:58;;;;;;;1.58;1.42;;;9.20;91.40;;;;;;5070613;28;20095;-79
2022/02/06 11:44:51;;;;;;;2.47;1.50;;;9.20;91.40;;;;;;5063822;28;20556;-76
2022/02/06 11:47:23;;;;;;;3.17;1.35;;;9.20;91.50;;;;;;5066797;28;20423;-77
2022/02/06 11:49:52;;;;;;;1.95;1.40;;;9.30;91.50;;;;;;5066937;28;20028;-78
2022/02/06 11:52:18;;;;;;;2.63;1.40;;;9.30;91.50;;;;;;5067734;28;20079;-78
2022/02/06 11:54:49;;;;;;;0.93;0.80;;;9.30;91.50;;;;;;5071359;28;20203;-78
2022/02/06 11:57:18;;;;;;;0.65;0.55;;;9.30;91.20;;;;;;5069422;28;20077;-76
2022/02/06 12:00:11;;;;;;;0.57;0.57;;;9.00;90.60;;;;;;5066565;28;20027;-77
2022/02/06 12:02:39;;;;;;;1.02;0.80;;;8.70;90.50;;;;;;5065151;28;20090;-78
2022/02/06 12:05:26;;;;;;;1.40;1.30;;;8.50;90.50;;;;;;5066559;28;20028;-79
2022/02/06 12:07:55;;;;;;;1.50;0.75;;;8.30;90.50;;;;;;5076106;28;20047;-78
2022/02/06 12:10:22;;;;;;;1.17;0.80;;;8.20;90.40;;;;;;5068403;28;20055;-79
2022/02/06 12:13:07;;;;;;;2.85;0.80;;;8.10;90.40;;;;;;5071360;28;20044;-77
2022/02/06 12:15:50;;;;;;;1.25;0.75;;;8.00;90.30;;;;;;5067176;28;20025;-77
2022/02/06 12:18:34;;;;;;;1.10;0.65;;;7.90;90.30;;;;;;5066694;28;20103;-77
2022/02/06 12:21:22;;;;;;;2.10;0.80;;;7.80;90.30;;;;;;5075890;28;20048;-77
2022/02/06 12:23:57;;;;;;;1.58;0.93;;;7.70;90.20;;;;;;5068278;28;20036;-76
2022/02/06 12:26:40;;;;;;;1.02;0.75;;;7.70;90.20;;;;;;5059646;28;20024;-75
2022/02/06 12:29:17;;;;;;;0.95;0.70;;;7.70;90.30;;;;;;5064932;28;20020;-76
2022/02/06 12:31:50;;;;;;;0.65;0.60;;;7.70;90.20;;;;;;5059449;28;20044;-75
2022/02/06 12:36:53;;;;;;;0.70;0.60;;;7.70;90.20;;;;;;5069135;28;20045;-76
2022/02/06 12:37:28;;;;;;;0.90;0.70;;;7.80;90.20;;;;;;5062433;28;20451;-75
2022/02/06 12:39:57;;;;;;;1.52;0.95;;;7.80;90.10;;;;;;5067451;28;20450;-76
2022/02/06 12:42:34;;;;;;;1.40;0.70;;;7.80;90.10;;;;;;5066084;28;20055;-75
2022/02/06 12:45:02;;;;;;;2.28;0.73;;;7.80;90.10;;;;;;5060395;28;20402;-75
2022/02/06 12:47:29;;;;;;;1.33;0.70;;;7.90;90.10;;;;;;5069632;28;20031;-75
2022/02/06 12:49:55;;;;;;;0.85;0.65;;;8.00;90.00;;;;;;5060643;28;20034;-76
2022/02/06 12:52:21;;;;;;;0.70;0.70;;;8.00;90.00;;;;;;5064318;28;20032;-77
2022/02/06 12:54:47;;;;;;;1.92;0.90;;;8.00;89.90;;;;;;5054095;28;20025;-75
2022/02/06 12:57:18;;;;;;;0.80;0.63;;;8.00;89.80;;;;;;5066255;28;20033;-75
2022/02/06 12:59:44;;;;;;;1.40;0.90;;;8.00;89.80;;;;;;5057125;28;20396;-75
2022/02/06 13:02:11;;;;;;;2.00;0.80;;;8.00;89.70;;;;;;5066313;28;20025;-75
2022/02/06 13:04:42;;;;;;;0.88;0.70;;;8.10;89.70;;;;;;5068086;28;20484;-75
2022/02/06 13:07:08;;;;;;;2.47;0.73;;;8.10;89.60;;;;;;5067372;28;20507;-74
2022/02/06 13:09:42;;;;;;;1.90;0.85;;;8.10;89.60;;;;;;5059802;28;20032;-74
2022/02/06 13:12:25;;;;;;;2.08;0.90;;;8.10;89.60;;;;;;5055325;28;20036;-74
2022/02/06 13:18:06;;;;;;;1.27;0.73;;;8.10;89.40;;;;;;5063975;28;20043;-75
2022/02/06 13:31:19;;;;;;;2.83;1.15;;;8.20;89.20;;;;;;5063155;28;20056;-73
2022/02/06 13:38:58;;;;;;;2.35;1.10;;;8.20;89.00;;;;;;5067578;28;20040;-75
2022/02/06 13:41:27;;;;;;;4.95;1.30;;;8.20;89.10;;;;;;5066055;28;20024;-74
2022/02/06 13:43:56;;;;;;;3.63;1.10;;;8.20;88.90;;;;;;5063759;28;20733;-74
2022/02/06 13:46:35;;;;;;;3.17;1.30;;;8.20;88.90;;;;;;5065197;28;20614;-74
2022/02/06 13:49:02;;;;;;;4.07;1.27;;;8.20;88.90;;;;;;5066096;28;20048;-75
2022/02/06 13:51:38;;;;;;;4.38;1.90;;;8.20;88.90;;;;;;5066318;28;20021;-74
2022/02/06 13:54:06;;;;;;;4.78;1.35;;;8.30;88.80;;;;;;5063074;28;20115;-75
2022/02/06 13:56:33;;;;;;;2.08;1.27;;;8.30;88.70;;;;;;5051014;28;20021;-75
2022/02/06 13:59:08;;;;;;;1.92;1.00;;;8.40;88.70;;;;;;5057643;28;20032;-75
2022/02/06 14:01:47;;;;;;;3.47;1.40;;;8.40;88.60;;;;;;5061066;28;20426;-75
2022/02/06 14:04:35;;;;;;;3.92;1.20;;;8.40;88.50;;;;;;5063229;28;20013;-75
2022/02/06 14:07:10;;;;;;;3.05;1.00;;;8.40;88.40;;;;;;5059738;28;20032;-75
2022/02/06 14:12:20;;;;;;;5.20;1.10;;;8.50;88.30;;;;;;5061348;28;20052;-75
2022/02/06 14:14:54;;;;;;;4.32;1.35;;;8.50;88.20;;;;;;5057327;28;20037;-75
2022/02/06 14:17:22;;;;;;;4.25;1.10;;;8.50;88.10;;;;;;5059449;28;20032;-76
2022/02/06 14:19:48;;;;;;;4.80;1.30;;;8.50;88.10;;;;;;5061854;28;20033;-75
2022/02/06 14:22:37;;;;;;;6.75;1.20;;;8.50;88.00;;;;;;5062315;28;20511;-74
2022/02/06 14:25:04;;;;;;;2.70;1.02;;;8.50;88.00;;;;;;5061756;28;20025;-75
2022/02/06 14:27:43;;;;;;;6.78;1.42;;;8.50;87.90;;;;;;5063738;28;20062;-75
2022/02/06 14:30:21;;;;;;;4.38;1.25;;;8.60;87.90;;;;;;5063606;28;20029;-75
2022/02/06 14:33:06;;;;;;;3.63;1.30;;;8.60;87.80;;;;;;5064162;28;20036;-75
2022/02/06 14:35:55;;;;;;;4.05;1.50;;;8.70;87.80;;;;;;5059524;28;20128;-75
2022/02/06 14:38:37;;;;;;;6.78;1.30;;;8.70;87.70;;;;;;5061748;28;20062;-74
2022/02/06 14:44:01;;;;;;;5.97;1.20;;;8.70;87.40;;;;;;5062512;28;20040;-74
2022/02/06 14:46:28;;;;;;;3.88;1.20;;;8.80;87.40;;;;;;5060288;28;20510;-74
2022/02/06 14:48:54;;;;;;;4.60;1.30;;;8.90;87.40;;;;;;5057579;28;20024;-75
2022/02/06 14:51:20;;;;;;;5.10;1.40;;;8.90;87.20;;;;;;5061876;28;20557;-75
2022/02/06 14:53:46;;;;;;;4.10;1.30;;;9.00;87.00;;;;;;5063530;28;20029;-75
2022/02/06 14:56:13;;;;;;;2.97;1.30;;;9.00;86.70;;;;;;5068733;28;20515;-74
2022/02/06 14:58:39;;;;;;;3.28;1.17;;;9.00;86.50;;;;;;5058100;28;20028;-76
2022/02/06 15:01:05;;;;;;;5.03;1.42;;;9.00;86.30;;;;;;5063820;28;20021;-75
2022/02/06 15:03:31;;;;;;;4.15;1.00;;;9.00;85.80;;;;;;5060319;28;20413;-75
2022/02/06 15:05:56;;;;;;;1.63;0.90;;;9.00;85.40;;;;;;5061538;28;20615;-76
2022/02/06 15:08:22;;;;;;;2.72;1.25;;;9.00;85.40;;;;;;5063311;28;20040;-76
2022/02/06 15:10:49;;;;;;;2.05;1.05;;;9.10;86.00;;;;;;5059500;28;20043;-75
2022/02/06 15:13:15;;;;;;;2.95;1.30;;;9.10;85.10;;;;;;5072259;28;20067;-75
2022/02/06 15:15:48;;;;;;;4.60;1.38;;;9.10;84.70;;;;;;5064860;28;20024;-76
2022/02/06 15:20:50;;;;;;;4.07;1.15;;;9.10;84.50;;;;;;5064785;28;20582;-75
2022/02/06 15:23:15;;;;;;;3.00;1.10;;;9.10;84.40;;;;;;5067490;28;20032;-75
2022/02/06 15:25:41;;;;;;;4.25;1.20;;;9.10;84.40;;;;;;5067216;28;20020;-74
2022/02/06 15:28:06;;;;;;;4.57;1.25;;;9.10;84.30;;;;;;5062199;28;20052;-74
2022/02/06 15:30:32;;;;;;;3.70;1.20;;;9.10;84.20;;;;;;5064397;28;20025;-76